createdAt,value
2018-03-21T00:01:37.683Z,17.85
2018-03-21T00:04:04.728Z,17.10
2018-03-21T00:06:31.712Z,16.25
2018-03-21T00:08:58.703Z,17.45
2018-03-21T00:11:25.750Z,16.60
2018-03-21T00:13:52.661Z,16.40
2018-03-21T00:16:19.579Z,16.85
2018-03-21T00:18:46.617Z,17.10
2018-03-21T00:21:13.658Z,15.68
2018-03-21T00:23:40.595Z,16.20
2018-03-21T00:26:07.678Z,15.85
2018-03-21T00:28:34.745Z,16.45
2018-03-21T00:31:01.628Z,15.75
2018-03-21T00:33:28.702Z,15.38
2018-03-21T00:35:55.758Z,16.20
2018-03-21T00:38:22.659Z,16.05
2018-03-21T00:40:49.687Z,15.32
2018-03-21T00:43:16.673Z,16.30
2018-03-21T00:45:43.579Z,14.18
2018-03-21T00:48:10.520Z,15.38
2018-03-21T00:50:37.451Z,15.80
2018-03-21T00:53:04.375Z,16.75
2018-03-21T00:55:31.470Z,16.45
2018-03-21T00:57:58.511Z,14.48
2018-03-21T01:00:25.468Z,16.65
2018-03-21T01:02:52.372Z,15.85
2018-03-21T01:05:19.411Z,15.45
2018-03-21T01:07:46.530Z,15.65
2018-03-21T01:10:13.471Z,14.27
2018-03-21T01:12:40.451Z,14.80
2018-03-21T01:15:07.498Z,15.65
2018-03-21T01:17:34.521Z,14.55
2018-03-21T01:20:01.500Z,15.48
2018-03-21T01:22:28.465Z,14.93
2018-03-21T01:24:55.484Z,14.15
2018-03-21T01:27:22.420Z,14.70
2018-03-21T01:29:49.446Z,14.77
2018-03-21T01:32:16.458Z,14.87
2018-03-21T01:34:43.486Z,14.52
2018-03-21T01:37:10.618Z,15.98
2018-03-21T01:39:37.671Z,15.55
2018-03-21T01:42:04.700Z,15.93
2018-03-21T01:44:31.696Z,15.07
2018-03-21T01:46:58.651Z,15.15
2018-03-21T01:49:25.733Z,17.05
2018-03-21T01:51:52.855Z,16.27
2018-03-21T01:54:19.898Z,15.77
2018-03-21T01:56:46.921Z,15.63
2018-03-21T01:59:14.061Z,14.25
2018-03-21T02:01:41.069Z,15.18
2018-03-21T02:04:08.034Z,14.57
2018-03-21T02:06:35.080Z,12.80
2018-03-21T02:09:01.988Z,13.98
2018-03-21T02:11:29.029Z,12.25
2018-03-21T02:13:55.943Z,12.40
2018-03-21T02:16:22.959Z,12.52
2018-03-21T02:18:50.054Z,11.30
2018-03-21T02:21:17.102Z,11.25
2018-03-21T02:23:44.098Z,11.07
2018-03-21T02:26:11.279Z,10.80
2018-03-21T02:28:38.237Z,10.85
2018-03-21T02:31:05.420Z,10.35
2018-03-21T02:33:32.409Z,10.20
2018-03-21T02:35:59.417Z,10.90
2018-03-21T02:38:26.519Z,10.45
2018-03-21T02:40:53.575Z,10.30
2018-03-21T02:43:20.582Z,10.00
2018-03-21T02:45:47.673Z,10.57
2018-03-21T02:48:14.604Z,10.13
2018-03-21T02:50:41.646Z,9.57
2018-03-21T02:53:08.629Z,9.93
2018-03-21T02:55:35.589Z,9.73
2018-03-21T02:58:02.608Z,10.68
2018-03-21T03:00:29.625Z,9.98
2018-03-21T03:02:56.530Z,9.65
2018-03-21T03:05:23.447Z,9.68
2018-03-21T03:07:50.497Z,9.93
2018-03-21T03:10:17.419Z,10.00
2018-03-21T03:12:44.447Z,9.77
2018-03-21T03:15:11.480Z,10.10
2018-03-21T03:17:38.434Z,10.23
2018-03-21T03:20:05.422Z,10.32
2018-03-21T03:22:32.578Z,10.43
2018-03-21T03:24:59.557Z,10.73
2018-03-21T03:27:26.476Z,10.60
2018-03-21T03:29:53.430Z,11.70
2018-03-21T03:32:20.480Z,10.88
2018-03-21T03:34:47.471Z,11.20
2018-03-21T03:37:14.416Z,10.98
2018-03-21T03:39:41.318Z,9.95
2018-03-21T03:42:08.401Z,10.82
2018-03-21T03:44:35.346Z,13.20
2018-03-21T03:47:02.370Z,10.77
2018-03-21T03:49:29.270Z,12.68
2018-03-21T03:51:56.443Z,11.85
2018-03-21T03:54:23.377Z,12.23
2018-03-21T03:56:50.346Z,12.52
2018-03-21T03:59:17.241Z,12.50
2018-03-21T04:01:44.356Z,13.13
2018-03-21T04:04:11.347Z,13.55
2018-03-21T04:06:38.411Z,11.98
2018-03-21T04:09:05.373Z,12.45
2018-03-21T04:11:32.689Z,13.13
2018-03-21T04:13:59.753Z,13.52
2018-03-21T04:16:26.834Z,13.57
2018-03-21T04:18:53.833Z,12.80
2018-03-21T04:21:20.775Z,12.30
2018-03-21T04:23:47.719Z,12.75
2018-03-21T04:26:14.817Z,12.65
2018-03-21T04:28:41.801Z,13.15
2018-03-21T04:31:08.807Z,14.32
2018-03-21T04:33:35.799Z,13.95
2018-03-21T04:36:02.866Z,13.85
2018-03-21T04:38:29.857Z,12.98
2018-03-21T04:40:56.936Z,12.85
2018-03-21T04:43:23.978Z,14.00
2018-03-21T04:45:51.103Z,13.48
2018-03-21T04:48:18.269Z,13.32
2018-03-21T04:50:45.302Z,13.80
2018-03-21T04:53:12.234Z,14.13
2018-03-21T04:55:39.214Z,14.77
2018-03-21T04:58:06.232Z,13.82
2018-03-21T05:00:33.180Z,13.82
2018-03-21T05:03:00.163Z,14.60
2018-03-21T05:05:27.234Z,14.70
2018-03-21T05:07:54.145Z,15.18
2018-03-21T05:10:21.087Z,16.27
2018-03-21T05:12:48.127Z,14.57
2018-03-21T05:15:15.136Z,14.55
2018-03-21T05:17:42.210Z,15.10
2018-03-21T05:20:09.185Z,14.55
2018-03-21T05:22:36.181Z,15.02
2018-03-21T05:25:03.103Z,15.52
2018-03-21T05:27:30.111Z,15.48
2018-03-21T05:29:57.017Z,16.40
2018-03-21T05:32:23.968Z,16.67
2018-03-21T05:34:51.193Z,16.27
2018-03-21T05:37:18.140Z,16.67
2018-03-21T05:39:46.583Z,16.42
2018-03-21T05:42:13.933Z,16.67
2018-03-21T05:44:40.938Z,17.83
2018-03-21T05:47:08.033Z,17.42
2018-03-21T05:49:34.939Z,15.50
2018-03-21T05:52:02.104Z,17.23
2018-03-21T05:54:29.167Z,15.93
2018-03-21T05:56:56.179Z,17.37
2018-03-21T05:59:23.150Z,17.73
2018-03-21T06:01:50.286Z,17.17
2018-03-21T06:04:17.440Z,17.20
2018-03-21T06:06:44.519Z,17.42
2018-03-21T06:09:11.501Z,18.70
2018-03-21T06:11:38.522Z,15.77
2018-03-21T06:14:05.496Z,16.58
2018-03-21T06:16:33.634Z,18.40
2018-03-21T06:19:00.665Z,17.77
2018-03-21T06:21:27.717Z,17.15
2018-03-21T06:23:54.651Z,18.60
2018-03-21T06:26:21.660Z,18.50
2018-03-21T06:28:48.652Z,18.08
2018-03-21T06:31:15.727Z,17.95
2018-03-21T06:33:42.722Z,18.83
2018-03-21T06:36:10.161Z,18.35
2018-03-21T06:38:37.123Z,17.87
2018-03-21T06:41:04.407Z,19.12
2018-03-21T06:43:31.403Z,18.40
2018-03-21T06:45:58.419Z,18.05
2018-03-21T06:48:25.377Z,19.45
2018-03-21T06:50:52.391Z,20.12
2018-03-21T06:53:19.273Z,19.95
2018-03-21T06:55:46.231Z,20.15
2018-03-21T06:58:13.150Z,20.42
2018-03-21T07:00:40.051Z,19.62
2018-03-21T07:03:07.010Z,21.80
2018-03-21T07:05:33.893Z,19.98
2018-03-21T07:08:00.727Z,20.50
2018-03-21T07:10:27.820Z,20.58
2018-03-21T07:12:54.852Z,20.73
2018-03-21T07:15:27.910Z,20.37
2018-03-21T07:17:55.669Z,19.52
2018-03-21T07:20:22.597Z,21.00
2018-03-21T07:22:49.610Z,21.30
2018-03-21T07:25:16.625Z,21.92
2018-03-21T07:27:43.517Z,22.17
2018-03-21T07:30:10.447Z,22.40
2018-03-21T07:32:37.413Z,22.30
2018-03-21T07:35:04.317Z,23.27
2018-03-21T07:37:31.410Z,23.00
2018-03-21T07:39:58.301Z,23.08
2018-03-21T07:42:25.230Z,23.08
2018-03-21T07:44:52.159Z,22.33
2018-03-21T07:47:19.102Z,22.05
2018-03-21T07:49:46.002Z,21.73
2018-03-21T07:52:13.082Z,22.58
2018-03-21T07:54:39.982Z,22.77
2018-03-21T07:57:06.869Z,22.02
2018-03-21T07:59:33.801Z,22.50
2018-03-21T08:02:00.737Z,22.58
2018-03-21T08:04:32.620Z,23.70
2018-03-21T08:06:59.557Z,23.40
2018-03-21T08:09:26.453Z,21.58
2018-03-21T08:11:53.396Z,23.00
2018-03-21T08:14:20.361Z,20.55
2018-03-21T08:16:47.452Z,21.30
2018-03-21T08:19:14.381Z,22.10
2018-03-21T08:21:41.436Z,21.20
2018-03-21T08:24:08.363Z,22.98
2018-03-21T08:26:35.431Z,20.05
2018-03-21T08:29:02.281Z,21.30
2018-03-21T08:31:29.400Z,21.60
2018-03-21T08:33:56.311Z,19.90
2018-03-21T08:36:23.962Z,18.08
2018-03-21T08:38:50.861Z,19.37
2018-03-21T08:41:19.005Z,18.90
2018-03-21T08:43:46.243Z,18.73
2018-03-21T08:46:14.515Z,16.40
2018-03-21T08:48:42.096Z,18.20
2018-03-21T08:51:10.713Z,17.57
2018-03-21T08:53:38.565Z,17.30
2018-03-21T08:56:06.275Z,16.97
2018-03-21T08:58:35.697Z,16.33
2018-03-21T09:01:03.802Z,17.10
2018-03-21T09:03:30.922Z,16.10
2018-03-21T09:05:58.390Z,15.00
2018-03-21T09:08:25.405Z,15.33
2018-03-21T09:10:52.409Z,14.67
2018-03-21T09:13:19.489Z,14.57
2018-03-21T09:15:46.701Z,15.03
2018-03-21T09:18:13.597Z,14.70
2018-03-21T09:20:40.506Z,14.43
2018-03-21T09:23:07.422Z,14.30
2018-03-21T09:25:34.381Z,14.07
2018-03-21T09:28:01.312Z,13.30
2018-03-21T09:30:28.228Z,15.03
2018-03-21T09:32:55.151Z,16.40
2018-03-21T09:35:22.352Z,15.80
2018-03-21T09:37:49.262Z,15.00
2018-03-21T09:40:16.234Z,14.53
2018-03-21T09:42:43.206Z,12.80
2018-03-21T09:45:10.087Z,13.13
2018-03-21T09:47:37.058Z,12.77
2018-03-21T09:50:03.982Z,12.93
2018-03-21T09:52:30.944Z,12.23
2018-03-21T09:54:57.819Z,12.30
2018-03-21T09:57:26.022Z,13.30
2018-03-21T09:59:52.904Z,12.00
2018-03-21T10:02:19.955Z,11.80
2018-03-21T10:04:47.012Z,11.33
2018-03-21T10:07:13.878Z,11.63
2018-03-21T10:09:40.838Z,11.47
2018-03-21T10:12:07.746Z,11.23
2018-03-21T10:14:34.662Z,11.23
2018-03-21T10:17:01.505Z,11.17
2018-03-21T10:19:28.381Z,10.80
2018-03-21T10:21:55.305Z,9.57
2018-03-21T10:24:22.236Z,8.90
2018-03-21T10:26:49.152Z,9.37
2018-03-21T10:29:16.058Z,8.90
2018-03-21T10:31:43.335Z,7.97
2018-03-21T10:34:10.238Z,8.43
2018-03-21T10:36:37.274Z,7.83
2018-03-21T10:39:04.233Z,8.73
2018-03-21T10:41:31.288Z,8.10
2018-03-21T10:43:58.215Z,6.53
2018-03-21T10:46:25.310Z,5.80
2018-03-21T10:48:52.272Z,6.03
2018-03-21T10:51:19.430Z,5.20
2018-03-21T10:53:46.442Z,5.60
2018-03-21T10:56:13.554Z,5.53
2018-03-21T10:58:40.421Z,5.43
2018-03-21T11:01:13.528Z,5.43
2018-03-21T11:03:40.393Z,4.90
2018-03-21T11:06:07.513Z,5.33
2018-03-21T11:08:34.483Z,5.43
2018-03-21T11:11:01.553Z,5.50
2018-03-21T11:13:28.475Z,5.47
2018-03-21T11:15:55.493Z,5.87
2018-03-21T11:18:22.458Z,5.50
2018-03-21T11:20:49.413Z,6.40
2018-03-21T11:23:16.396Z,6.10
2018-03-21T11:25:43.358Z,6.40
2018-03-21T11:28:10.223Z,5.37
2018-03-21T11:30:37.151Z,6.40
2018-03-21T11:33:04.047Z,6.37
2018-03-21T11:35:31.894Z,5.90
2018-03-21T11:37:58.767Z,5.33
2018-03-21T11:40:25.657Z,5.30
2018-03-21T11:42:52.554Z,5.50
2018-03-21T11:45:19.481Z,6.77
2018-03-21T11:47:46.434Z,5.60
2018-03-21T11:50:13.387Z,5.27
2018-03-21T11:52:40.342Z,5.60
2018-03-21T11:55:07.177Z,6.33
2018-03-21T11:57:33.985Z,6.60
2018-03-21T12:00:00.904Z,5.70
2018-03-21T12:02:27.715Z,6.00
2018-03-21T12:04:54.669Z,5.70
2018-03-21T12:07:21.523Z,5.10
2018-03-21T12:09:48.366Z,5.30
2018-03-21T12:12:15.211Z,5.40
2018-03-21T12:14:42.141Z,5.23
2018-03-21T12:17:09.067Z,4.93
2018-03-21T12:19:35.951Z,4.73
2018-03-21T12:22:02.949Z,5.33
2018-03-21T12:24:29.955Z,4.90
2018-03-21T12:26:56.858Z,4.83
2018-03-21T12:29:23.737Z,5.30
2018-03-21T12:31:50.673Z,5.03
2018-03-21T12:34:17.718Z,5.37
2018-03-21T12:36:44.903Z,4.30
2018-03-21T12:39:16.953Z,5.23
2018-03-21T12:41:43.913Z,4.73
2018-03-21T12:44:10.995Z,4.50
2018-03-21T12:46:38.021Z,4.90
2018-03-21T12:49:04.883Z,5.33
2018-03-21T12:51:31.865Z,4.10
2018-03-21T12:53:58.815Z,7.07
2018-03-21T12:56:25.861Z,5.37
2018-03-21T12:58:52.713Z,4.53
2018-03-21T13:01:20.469Z,4.43
2018-03-21T13:03:47.423Z,4.10
2018-03-21T13:06:14.435Z,4.60
2018-03-21T13:08:41.617Z,4.90
2018-03-21T13:11:09.409Z,4.47
2018-03-21T13:13:37.697Z,4.93
2018-03-21T13:16:04.912Z,4.80
2018-03-21T13:18:31.985Z,5.67
2018-03-21T13:20:59.050Z,6.50
2018-03-21T13:23:26.016Z,6.77
2018-03-21T13:25:53.288Z,6.93
2018-03-21T13:28:20.388Z,6.93
2018-03-21T13:30:49.087Z,5.77
2018-03-21T13:33:16.203Z,6.07
2018-03-21T13:35:43.523Z,6.47
2018-03-21T13:38:10.551Z,4.60
2018-03-21T13:40:37.517Z,4.40
2018-03-21T13:43:05.213Z,4.60
2018-03-21T13:45:32.300Z,4.37
2018-03-21T13:47:59.215Z,3.93
2018-03-21T13:50:26.266Z,4.33
2018-03-21T13:52:53.437Z,4.70
2018-03-21T13:55:20.735Z,4.40
2018-03-21T13:57:48.004Z,4.43
2018-03-21T14:00:15.121Z,4.27
2018-03-21T14:02:42.255Z,4.57
2018-03-21T14:05:09.613Z,4.43
2018-03-21T14:07:36.717Z,4.53
2018-03-21T14:10:03.634Z,3.90
2018-03-21T14:12:30.562Z,3.70
2018-03-21T14:14:57.585Z,4.03
2018-03-21T14:17:24.861Z,3.57
2018-03-21T14:19:52.218Z,3.60
2018-03-21T14:22:19.308Z,3.83
2018-03-21T14:24:46.518Z,4.07
2018-03-21T14:27:13.572Z,3.90
2018-03-21T14:29:40.595Z,4.03
2018-03-21T14:32:07.551Z,4.00
2018-03-21T14:34:34.663Z,4.00
2018-03-21T14:37:03.236Z,4.10
2018-03-21T14:39:30.759Z,4.00
2018-03-21T14:41:57.873Z,3.43
2018-03-21T14:44:24.837Z,3.47
2018-03-21T14:46:51.990Z,3.93
2018-03-21T14:49:19.161Z,3.50
2018-03-21T14:51:46.556Z,3.50
2018-03-21T14:54:13.778Z,3.43
2018-03-21T14:56:40.884Z,3.40
2018-03-21T14:59:08.280Z,3.27
2018-03-21T15:01:36.302Z,3.50
2018-03-21T15:04:03.815Z,2.83
2018-03-21T15:06:31.727Z,3.00
2018-03-21T15:08:58.733Z,3.80
2018-03-21T15:11:26.063Z,3.30
2018-03-21T15:13:53.144Z,3.40
2018-03-21T15:16:20.162Z,3.10
2018-03-21T15:18:47.204Z,3.10
2018-03-21T15:21:14.259Z,3.20
2018-03-21T15:23:41.257Z,2.73
2018-03-21T15:26:08.350Z,2.93
2018-03-21T15:28:35.243Z,3.67
2018-03-21T15:31:02.380Z,2.83
2018-03-21T15:33:32.079Z,2.73
2018-03-21T15:35:59.158Z,3.60
2018-03-21T15:38:26.047Z,3.40
2018-03-21T15:40:53.233Z,3.10
2018-03-21T15:43:20.184Z,3.07
2018-03-21T15:45:48.977Z,2.90
2018-03-21T15:48:18.016Z,2.60
2018-03-21T15:50:45.064Z,2.77
2018-03-21T15:53:12.048Z,2.60
2018-03-21T15:55:39.173Z,2.70
2018-03-21T15:58:06.147Z,2.73
2018-03-21T16:00:32.991Z,2.90
2018-03-21T16:03:00.392Z,2.53
2018-03-21T16:05:27.652Z,2.30
2018-03-21T16:07:54.703Z,2.50
2018-03-21T16:10:21.709Z,2.27
2018-03-21T16:12:48.690Z,2.83
2018-03-21T16:15:15.631Z,2.60
2018-03-21T16:17:42.529Z,2.50
2018-03-21T16:20:09.453Z,3.17
2018-03-21T16:22:36.498Z,2.97
2018-03-21T16:25:03.429Z,3.23
2018-03-21T16:27:30.377Z,2.57
2018-03-21T16:29:58.161Z,2.80
2018-03-21T16:32:25.058Z,3.10
2018-03-21T16:34:52.052Z,2.60
2018-03-21T16:37:19.373Z,2.97
2018-03-21T16:39:46.306Z,3.20
2018-03-21T16:42:13.204Z,3.00
2018-03-21T16:44:40.131Z,2.70
2018-03-21T16:47:07.147Z,3.17
2018-03-21T16:49:34.090Z,3.35
2018-03-21T16:52:01.148Z,3.42
2018-03-21T16:54:28.159Z,3.45
2018-03-21T16:56:55.064Z,3.72
2018-03-21T16:59:22.190Z,3.95
2018-03-21T17:01:49.276Z,4.60
2018-03-21T17:04:16.608Z,4.65
2018-03-21T17:06:43.855Z,4.43
2018-03-21T17:09:10.829Z,4.47
2018-03-21T17:11:37.967Z,4.72
2018-03-21T17:14:04.992Z,3.97
2018-03-21T17:16:32.492Z,4.07
2018-03-21T17:18:59.773Z,4.07
2018-03-21T17:21:26.931Z,3.80
2018-03-21T17:23:54.235Z,3.70
2018-03-21T17:26:21.582Z,3.35
2018-03-21T17:28:48.736Z,3.12
2018-03-21T17:31:15.885Z,3.30
2018-03-21T17:33:42.843Z,3.67
2018-03-21T17:36:09.864Z,3.97
2018-03-21T17:38:36.818Z,3.75
2018-03-21T17:41:05.013Z,3.78
2018-03-21T17:43:32.032Z,4.00
2018-03-21T17:45:59.013Z,4.07
2018-03-21T17:48:26.137Z,4.15
2018-03-21T17:50:53.298Z,4.30
2018-03-21T17:53:20.358Z,4.97
2018-03-21T17:55:47.468Z,4.60
2018-03-21T17:58:14.524Z,4.47
2018-03-21T18:00:41.478Z,4.95
2018-03-21T18:03:08.379Z,4.70
2018-03-21T18:05:37.261Z,4.28
2018-03-21T18:08:04.475Z,4.50
2018-03-21T18:10:31.433Z,4.18
2018-03-21T18:12:59.132Z,4.53
2018-03-21T18:15:26.303Z,4.22
2018-03-21T18:17:55.574Z,3.95
2018-03-21T18:20:22.952Z,4.10
2018-03-21T18:22:49.944Z,4.00
2018-03-21T18:25:16.914Z,4.15
2018-03-21T18:27:43.915Z,3.75
2018-03-21T18:30:10.988Z,3.78
2018-03-21T18:32:38.267Z,4.10
2018-03-21T18:35:06.309Z,3.65
2018-03-21T18:37:33.719Z,3.05
2018-03-21T18:40:01.094Z,4.28
2018-03-21T18:42:29.756Z,3.62
2018-03-21T18:44:57.210Z,3.78
2018-03-21T18:47:24.503Z,3.47
2018-03-21T18:49:52.772Z,3.65
2018-03-21T18:52:21.460Z,3.50
2018-03-21T18:54:49.277Z,3.08
2018-03-21T18:57:17.572Z,3.20
2018-03-21T18:59:47.395Z,3.65
2018-03-21T19:02:15.177Z,4.22
2018-03-21T19:04:42.589Z,9.57
2018-03-21T19:07:10.432Z,6.12
2018-03-21T19:09:38.762Z,3.70
2018-03-21T19:12:05.887Z,3.75
2018-03-21T19:14:33.914Z,3.95
2018-03-21T19:17:01.524Z,4.37
2018-03-21T19:19:29.048Z,4.50
2018-03-21T19:21:57.588Z,4.20
2018-03-21T19:24:24.886Z,4.25
2018-03-21T19:26:52.419Z,4.85
2018-03-21T19:29:19.505Z,3.87
2018-03-21T19:31:48.023Z,3.90
2018-03-21T19:34:15.514Z,4.70
2018-03-21T19:36:43.183Z,4.03
2018-03-21T19:39:10.748Z,4.68
2018-03-21T19:41:37.951Z,4.37
2018-03-21T19:44:05.863Z,4.90
2018-03-21T19:46:34.779Z,4.50
2018-03-21T19:49:02.678Z,4.87
2018-03-21T19:51:29.824Z,4.70
2018-03-21T19:53:58.461Z,4.43
2018-03-21T19:56:26.824Z,4.50
2018-03-21T19:58:54.362Z,4.25
2018-03-21T20:01:23.502Z,4.70
2018-03-21T20:03:51.070Z,4.75
2018-03-21T20:06:19.251Z,4.35
2018-03-21T20:08:47.476Z,4.82
2018-03-21T20:11:15.646Z,4.85
2018-03-21T20:13:56.541Z,4.30
2018-03-21T20:16:43.510Z,4.68
2018-03-21T20:19:14.005Z,4.78
2018-03-21T20:21:41.640Z,4.22
2018-03-21T20:24:09.200Z,4.03
2018-03-21T20:26:36.984Z,4.15
2018-03-21T20:29:04.927Z,4.10
2018-03-21T20:31:33.958Z,4.00
2018-03-21T20:34:12.652Z,4.53
2018-03-21T20:36:40.960Z,3.95
2018-03-21T20:39:09.099Z,4.60
2018-03-21T20:41:37.137Z,5.03
2018-03-21T20:44:05.653Z,5.00
2018-03-21T20:46:33.750Z,6.43
2018-03-21T20:49:01.710Z,4.40
2018-03-21T20:54:21.748Z,4.43
2018-03-21T20:56:49.059Z,4.22
2018-03-21T20:59:16.151Z,4.95
2018-03-21T21:01:44.271Z,5.00
2018-03-21T21:04:13.246Z,4.50
2018-03-21T21:06:50.983Z,4.25
2018-03-21T21:09:28.847Z,4.72
2018-03-21T21:11:58.061Z,4.30
2018-03-21T21:14:25.138Z,4.00
2018-03-21T21:16:52.350Z,4.95
2018-03-21T21:19:19.572Z,5.20
2018-03-21T21:21:46.823Z,4.65
2018-03-21T21:24:14.070Z,5.07
2018-03-21T21:26:41.908Z,4.95
2018-03-21T21:29:09.872Z,4.65
2018-03-21T21:31:37.539Z,4.72
2018-03-21T21:34:05.563Z,5.18
2018-03-21T21:36:33.566Z,4.57
2018-03-21T21:39:01.740Z,4.47
2018-03-21T21:41:31.525Z,4.53
2018-03-21T21:43:59.783Z,4.85
2018-03-21T21:46:27.774Z,5.90
2018-03-21T21:48:55.902Z,6.12
2018-03-21T21:51:24.858Z,5.07
2018-03-21T21:53:52.697Z,4.40
2018-03-21T21:56:21.626Z,5.22
2018-03-21T21:58:49.859Z,4.75
2018-03-21T22:01:17.044Z,5.40
2018-03-21T22:03:45.288Z,4.90
2018-03-21T22:06:13.154Z,4.95
2018-03-21T22:08:41.926Z,5.30
2018-03-21T22:11:10.903Z,4.72
2018-03-21T22:13:39.894Z,4.68
2018-03-21T22:16:08.489Z,4.80
2018-03-21T22:18:37.225Z,4.82
2018-03-21T22:21:07.315Z,5.30
2018-03-21T22:23:35.707Z,5.07
2018-03-21T22:26:05.084Z,4.43
2018-03-21T22:28:32.941Z,4.68
2018-03-21T22:31:02.662Z,4.87
2018-03-21T22:33:31.618Z,4.82
2018-03-21T22:35:59.782Z,4.90
2018-03-21T22:38:27.994Z,4.80
2018-03-21T22:40:56.143Z,5.10
2018-03-21T22:43:24.819Z,5.45
2018-03-21T22:45:53.651Z,4.90
2018-03-21T22:48:21.790Z,4.97
2018-03-21T22:50:50.613Z,5.22
2018-03-21T22:53:20.545Z,4.68
2018-03-21T22:55:53.520Z,5.55
2018-03-21T22:58:23.902Z,5.70
2018-03-21T23:00:52.924Z,5.22
2018-03-21T23:03:22.153Z,5.30
2018-03-21T23:05:51.967Z,5.68
2018-03-21T23:08:20.658Z,5.35
2018-03-21T23:10:49.067Z,5.15
2018-03-21T23:13:17.455Z,5.87
2018-03-21T23:15:46.141Z,5.53
2018-03-21T23:18:14.269Z,4.72
2018-03-21T23:20:43.173Z,4.93
2018-03-21T23:23:11.987Z,5.20
2018-03-21T23:25:40.097Z,5.20
2018-03-21T23:28:08.664Z,5.45
2018-03-21T23:30:38.065Z,5.28
2018-03-21T23:33:06.637Z,5.85
2018-03-21T23:35:36.272Z,5.10
2018-03-21T23:38:04.532Z,4.85
2018-03-21T23:40:33.568Z,5.15
2018-03-21T23:43:02.203Z,4.90
2018-03-21T23:45:30.562Z,4.62
2018-03-21T23:47:59.140Z,5.35
2018-03-21T23:50:28.012Z,4.95
2018-03-21T23:52:57.143Z,5.47
2018-03-21T23:55:26.991Z,5.25
2018-03-21T23:57:55.442Z,5.37
